Time;durP1;ratioP1;P1;durP2;ratioP2;P2;SDS_P1;SDS_P2;PMS_P1;PMS_P2;Temp;Humidity;BMP_temperature;BMP_pressure;BME280_temperature;BME280_humidity;BME280_pressure;Samples;Min_cycle;Max_cycle;Signal;HPM_P1;HPM_P2
2022/03/22 00:00:57;;;;;;;1999.90;999.90;;;11.70;99.90;;;;;;5116514;28;20453;-69
2022/03/22 00:03:25;;;;;;;1999.90;999.90;;;11.70;99.90;;;;;;5116413;28;20189;-70
2022/03/22 00:05:54;;;;;;;1999.90;999.90;;;11.60;99.90;;;;;;5115809;28;20403;-70
2022/03/22 00:08:20;;;;;;;1999.90;999.90;;;11.70;99.90;;;;;;5116758;28;20478;-70
2022/03/22 00:10:46;;;;;;;1999.90;999.90;;;11.70;99.90;;;;;;5116620;28;20407;-70
2022/03/22 00:13:12;;;;;;;1999.90;999.90;;;11.60;99.90;;;;;;5116179;28;20432;-70
2022/03/22 00:15:38;;;;;;;1999.90;999.90;;;11.50;99.90;;;;;;5116257;28;20169;-70
2022/03/22 00:18:04;;;;;;;1999.90;999.90;;;11.60;99.90;;;;;;5116199;28;20177;-70
2022/03/22 00:20:30;;;;;;;1999.90;999.90;;;11.50;99.90;;;;;;5116041;28;20165;-70
2022/03/22 00:22:57;;;;;;;1999.90;999.90;;;11.40;99.90;;;;;;5116278;28;20498;-70
2022/03/22 00:25:23;;;;;;;1999.90;999.90;;;11.20;99.90;;;;;;5115936;27;20956;-69
2022/03/22 00:27:52;;;;;;;1999.90;999.90;;;11.10;99.90;;;;;;5115827;28;20832;-69
2022/03/22 00:30:21;;;;;;;1999.90;999.90;;;10.90;99.90;;;;;;5115910;28;20404;-69
2022/03/22 00:32:50;;;;;;;1999.90;999.90;;;10.90;99.90;;;;;;5115735;28;20406;-69
2022/03/22 00:35:18;;;;;;;1999.90;999.90;;;11.10;99.90;;;;;;5115940;28;20404;-69
2022/03/22 00:37:46;;;;;;;1999.90;999.90;;;11.00;99.90;;;;;;5115542;28;20496;-69
2022/03/22 00:40:21;;;;;;;1999.90;999.90;;;10.80;99.90;;;;;;5115957;28;20916;-69
2022/03/22 00:42:48;;;;;;;1999.90;999.90;;;10.80;99.90;;;;;;5115399;28;20409;-69
2022/03/22 00:45:16;;;;;;;1999.90;999.90;;;10.70;99.90;;;;;;5114881;28;20422;-69
2022/03/22 00:47:47;;;;;;;1999.90;999.90;;;10.70;99.90;;;;;;5115619;28;20958;-69
2022/03/22 00:50:14;;;;;;;1999.90;999.90;;;10.60;99.90;;;;;;5115637;28;20411;-69
2022/03/22 00:52:40;;;;;;;1999.90;999.90;;;10.50;99.90;;;;;;5114896;28;20408;-69
2022/03/22 00:55:07;;;;;;;1999.90;999.90;;;10.40;99.90;;;;;;5115314;28;20423;-69
2022/03/22 00:57:33;;;;;;;1999.90;999.90;;;10.30;99.90;;;;;;5115183;28;20402;-69
2022/03/22 01:00:06;;;;;;;1999.90;999.90;;;10.30;99.90;;;;;;5115579;28;20410;-69
2022/03/22 01:02:34;;;;;;;1999.90;999.90;;;10.20;99.90;;;;;;5115186;28;20414;-69
2022/03/22 01:05:01;;;;;;;1999.90;999.90;;;10.20;99.90;;;;;;5114708;28;20455;-69
2022/03/22 01:07:27;;;;;;;1999.90;999.90;;;10.10;99.90;;;;;;5115361;28;20418;-69
2022/03/22 01:09:53;;;;;;;1999.90;999.90;;;10.10;99.90;;;;;;5115519;28;20410;-69
2022/03/22 01:12:18;;;;;;;1999.90;999.90;;;10.10;99.90;;;;;;5118052;28;20404;-70
2022/03/22 01:14:44;;;;;;;1999.90;999.90;;;10.10;99.90;;;;;;5116464;28;20198;-69
2022/03/22 01:17:10;;;;;;;1999.90;999.90;;;10.00;99.90;;;;;;5115038;28;20590;-69
2022/03/22 01:19:38;;;;;;;1999.90;999.90;;;10.00;99.90;;;;;;5115173;28;20240;-69
2022/03/22 01:22:05;;;;;;;1999.90;999.90;;;9.90;99.90;;;;;;5114930;28;20603;-69
2022/03/22 01:24:31;;;;;;;1999.90;999.90;;;9.90;99.90;;;;;;5114387;28;20433;-69
2022/03/22 01:26:57;;;;;;;1999.90;999.90;;;9.80;99.90;;;;;;5115085;28;20422;-69
2022/03/22 01:29:23;;;;;;;1999.90;999.90;;;9.80;99.90;;;;;;5113579;28;20488;-69
2022/03/22 01:31:49;;;;;;;1999.90;999.90;;;9.90;99.90;;;;;;5112631;28;20255;-69
2022/03/22 01:34:15;;;;;;;1999.90;999.90;;;9.90;99.90;;;;;;5112201;28;20204;-70
2022/03/22 01:36:41;;;;;;;1999.90;999.90;;;9.80;99.90;;;;;;5112650;28;20407;-69
2022/03/22 01:39:07;;;;;;;1999.90;999.90;;;9.80;99.90;;;;;;5112531;28;20238;-69
2022/03/22 01:41:34;;;;;;;1999.90;999.90;;;9.80;99.90;;;;;;5112595;28;20413;-69
2022/03/22 01:44:00;;;;;;;1999.90;999.90;;;9.80;99.90;;;;;;5127785;22;20985;-72
2022/03/22 01:46:27;;;;;;;1999.90;999.90;;;9.80;99.90;;;;;;5112511;28;20409;-72
2022/03/22 01:48:53;;;;;;;1999.90;999.90;;;9.80;99.90;;;;;;5112388;28;20511;-72
2022/03/22 01:51:23;;;;;;;1999.90;999.90;;;9.80;99.90;;;;;;5112453;28;20399;-73
2022/03/22 01:53:50;;;;;;;1999.90;999.90;;;9.90;99.90;;;;;;5112321;28;20414;-73
2022/03/22 01:56:16;;;;;;;1999.90;999.90;;;9.80;99.90;;;;;;5112118;28;20403;-73
2022/03/22 01:58:41;;;;;;;1999.90;999.90;;;9.80;99.90;;;;;;5112348;28;20398;-73
2022/03/22 02:06:39;;;;;;;1999.90;999.90;;;9.70;99.90;;;;;;5112657;28;20402;-73
2022/03/22 02:09:04;;;;;;;1999.90;999.90;;;9.60;99.90;;;;;;5114049;28;20948;-73
2022/03/22 02:11:30;;;;;;;1999.90;999.90;;;9.60;99.90;;;;;;5116387;28;20418;-73
2022/03/22 02:13:56;;;;;;;1999.90;999.90;;;9.70;99.90;;;;;;5116156;28;20186;-73
2022/03/22 02:16:22;;;;;;;1999.90;999.90;;;9.40;99.90;;;;;;5116083;28;20935;-73
2022/03/22 02:18:50;;;;;;;1999.90;999.90;;;9.40;99.90;;;;;;5116276;28;20202;-73
2022/03/22 02:21:16;;;;;;;1999.90;999.90;;;9.40;99.90;;;;;;5116242;28;20225;-73
2022/03/22 02:23:52;;;;;;;1999.90;999.90;;;9.40;99.90;;;;;;5116056;28;20432;-73
2022/03/22 02:26:19;;;;;;;1999.90;999.90;;;9.50;99.90;;;;;;5115839;28;20420;-73
2022/03/22 02:28:45;;;;;;;1999.90;999.90;;;9.40;99.90;;;;;;5115953;28;20446;-73
2022/03/22 02:31:13;;;;;;;1999.90;999.90;;;9.40;99.90;;;;;;5116043;28;20434;-72
2022/03/22 02:33:43;;;;;;;1999.90;999.90;;;9.30;99.90;;;;;;5115911;28;20420;-73
2022/03/22 02:36:09;;;;;;;1999.90;999.90;;;9.30;99.90;;;;;;5115714;28;20406;-73
2022/03/22 02:38:35;;;;;;;1999.90;999.90;;;9.20;99.90;;;;;;5115757;28;20807;-73
2022/03/22 02:41:01;;;;;;;1999.90;999.90;;;9.10;99.90;;;;;;5115741;28;20414;-73
2022/03/22 02:43:27;;;;;;;1999.90;999.90;;;9.10;99.90;;;;;;5115549;28;20195;-73
2022/03/22 02:45:52;;;;;;;1999.90;999.90;;;9.10;99.90;;;;;;5115499;28;20460;-73
2022/03/22 02:48:18;;;;;;;1999.90;999.90;;;9.10;99.90;;;;;;5115611;28;20444;-73
2022/03/22 02:50:44;;;;;;;1999.90;999.90;;;9.00;99.90;;;;;;5115677;28;20221;-73
2022/03/22 02:53:10;;;;;;;1999.90;999.90;;;9.10;99.90;;;;;;5115425;28;20169;-73
2022/03/22 02:55:36;;;;;;;1999.90;999.90;;;9.10;99.90;;;;;;5115223;28;20168;-73
2022/03/22 02:58:02;;;;;;;1999.90;999.90;;;9.10;99.90;;;;;;5115534;28;20413;-73
2022/03/22 03:00:28;;;;;;;1999.90;999.90;;;9.10;99.90;;;;;;5115428;28;20415;-73
2022/03/22 03:02:54;;;;;;;1999.90;999.90;;;9.00;99.90;;;;;;5115391;28;20422;-73
2022/03/22 03:05:21;;;;;;;1999.90;999.90;;;8.90;99.90;;;;;;5114991;28;20430;-73
2022/03/22 03:07:47;;;;;;;1999.90;999.90;;;8.90;99.90;;;;;;5115198;28;20195;-73
2022/03/22 03:10:13;;;;;;;1999.90;999.90;;;8.90;99.90;;;;;;5115168;28;20778;-73
2022/03/22 03:12:39;;;;;;;1999.90;999.90;;;8.90;99.90;;;;;;5115243;28;20397;-73
2022/03/22 03:15:08;;;;;;;1999.90;999.90;;;8.90;99.90;;;;;;5114932;28;21175;-73
2022/03/22 03:17:35;;;;;;;1999.90;999.90;;;8.90;99.90;;;;;;5115158;28;20179;-73
2022/03/22 03:20:01;;;;;;;1999.90;999.90;;;8.90;99.90;;;;;;5114764;28;20885;-73
2022/03/22 03:22:27;;;;;;;1999.90;999.90;;;8.90;99.90;;;;;;5114935;28;20426;-73
2022/03/22 03:24:52;;;;;;;1999.90;999.90;;;8.90;99.90;;;;;;5114634;28;20432;-73
2022/03/22 03:27:18;;;;;;;1999.90;999.90;;;8.70;99.90;;;;;;5114902;28;20519;-73
2022/03/22 03:29:44;;;;;;;1999.90;999.90;;;8.70;99.90;;;;;;5114831;28;20286;-73
2022/03/22 03:32:10;;;;;;;1999.90;999.90;;;8.70;99.90;;;;;;5114834;28;20413;-73
2022/03/22 03:34:36;;;;;;;1999.90;999.90;;;8.70;99.90;;;;;;5114470;28;20610;-73
2022/03/22 03:37:02;;;;;;;1999.90;999.90;;;8.70;99.90;;;;;;5114661;28;20406;-73
2022/03/22 03:39:28;;;;;;;1999.90;999.90;;;8.70;99.90;;;;;;5114625;28;20464;-73
2022/03/22 03:41:53;;;;;;;1999.90;999.90;;;8.70;99.90;;;;;;5114707;28;20770;-73
2022/03/22 03:47:07;;;;;;;1999.90;999.90;;;8.60;99.90;;;;;;5114619;28;20242;-73
2022/03/22 03:49:40;;;;;;;1999.90;999.90;;;8.60;99.90;;;;;;5114414;28;20932;-73
2022/03/22 03:52:07;;;;;;;1999.90;999.90;;;8.60;99.90;;;;;;5114482;28;20416;-73
2022/03/22 03:54:34;;;;;;;1999.90;999.90;;;8.70;99.90;;;;;;5114089;28;20451;-73
2022/03/22 03:57:00;;;;;;;1999.90;999.90;;;8.70;99.90;;;;;;5114424;28;20435;-73
2022/03/22 03:59:26;;;;;;;1999.90;999.90;;;8.70;99.90;;;;;;5114304;28;20411;-73
2022/03/22 04:01:52;;;;;;;1999.90;999.90;;;8.70;99.90;;;;;;5114326;28;20410;-73
2022/03/22 04:04:18;;;;;;;1999.90;999.90;;;8.70;99.90;;;;;;5113847;28;20429;-73
2022/03/22 04:06:45;;;;;;;1999.90;999.90;;;8.70;99.90;;;;;;5114177;28;20409;-73
2022/03/22 04:09:10;;;;;;;1999.90;999.90;;;8.70;99.90;;;;;;5114082;28;20489;-72
2022/03/22 04:11:38;;;;;;;1999.90;999.90;;;8.70;99.90;;;;;;5114048;28;20421;-72
2022/03/22 04:14:04;;;;;;;1999.90;999.90;;;8.70;99.90;;;;;;5113691;28;20184;-72
2022/03/22 04:16:30;;;;;;;1999.90;999.90;;;8.60;99.90;;;;;;5113968;28;20889;-72
2022/03/22 04:18:55;;;;;;;1999.90;999.90;;;8.60;99.90;;;;;;5113967;28;20171;-72
2022/03/22 04:21:21;;;;;;;1999.90;999.90;;;8.50;99.90;;;;;;5113805;28;20409;-72
2022/03/22 04:23:47;;;;;;;1999.90;999.90;;;8.30;99.90;;;;;;5113729;28;20779;-73
2022/03/22 04:26:12;;;;;;;1999.90;999.90;;;8.30;99.90;;;;;;5113530;28;20182;-73
2022/03/22 04:34:06;;;;;;;1999.90;999.90;;;8.20;99.90;;;;;;5113277;28;20414;-73
2022/03/22 04:36:32;;;;;;;1999.90;999.90;;;8.10;99.90;;;;;;5113478;28;20789;-72
2022/03/22 04:38:57;;;;;;;1999.90;999.90;;;8.10;99.90;;;;;;5113596;28;20178;-73
2022/03/22 04:41:23;;;;;;;1999.90;999.90;;;8.00;99.90;;;;;;5113833;28;20166;-73
2022/03/22 04:43:50;;;;;;;1999.90;999.90;;;8.00;99.90;;;;;;5113220;28;20232;-73
2022/03/22 04:46:18;;;;;;;1999.90;999.90;;;8.00;99.90;;;;;;5113150;28;20409;-73
2022/03/22 04:48:45;;;;;;;1999.90;999.90;;;8.00;99.90;;;;;;5113274;28;20439;-73
2022/03/22 04:56:45;;;;;;;1999.90;999.90;;;7.80;99.90;;;;;;5113279;28;20398;-73
2022/03/22 04:59:11;;;;;;;1999.90;999.90;;;7.70;99.90;;;;;;5113244;28;20416;-73
2022/03/22 05:01:37;;;;;;;1999.90;999.90;;;7.70;99.90;;;;;;5113057;28;20418;-73
2022/03/22 05:04:03;;;;;;;1999.90;999.90;;;7.60;99.90;;;;;;5112664;28;20789;-73
2022/03/22 05:06:30;;;;;;;1999.90;999.90;;;7.50;99.90;;;;;;5112873;28;20166;-73
2022/03/22 05:08:55;;;;;;;1999.90;999.90;;;7.50;99.90;;;;;;5112778;28;20260;-73
2022/03/22 05:11:22;;;;;;;1999.90;999.90;;;7.40;99.90;;;;;;5112979;28;20412;-73
2022/03/22 05:13:47;;;;;;;1999.90;999.90;;;7.40;99.90;;;;;;5112763;28;20273;-72
2022/03/22 05:16:14;;;;;;;1999.90;999.90;;;7.20;99.90;;;;;;5112547;28;20495;-72
2022/03/22 05:18:40;;;;;;;1999.90;999.90;;;7.20;99.90;;;;;;5112889;28;20280;-72
2022/03/22 05:21:07;;;;;;;1999.90;999.90;;;7.10;99.90;;;;;;5112791;28;20443;-72
2022/03/22 05:23:36;;;;;;;1999.90;999.90;;;7.20;99.90;;;;;;5112663;28;20438;-72
2022/03/22 05:26:03;;;;;;;1999.90;999.90;;;7.20;99.90;;;;;;5112562;28;20408;-72
2022/03/22 05:28:30;;;;;;;1999.90;999.90;;;7.30;99.90;;;;;;5112608;28;20458;-72
2022/03/22 05:30:56;;;;;;;1999.90;999.90;;;7.30;99.90;;;;;;5112691;28;20408;-72
2022/03/22 05:33:22;;;;;;;1999.90;999.90;;;7.20;99.90;;;;;;5112593;28;20404;-72
2022/03/22 05:35:48;;;;;;;1999.90;999.90;;;7.20;99.90;;;;;;5112510;28;20258;-72
2022/03/22 05:38:14;;;;;;;1999.90;999.90;;;7.10;99.90;;;;;;5112646;28;20411;-72
2022/03/22 05:40:40;;;;;;;1999.90;999.90;;;7.10;99.90;;;;;;5112589;28;20174;-72
2022/03/22 05:43:06;;;;;;;1999.90;999.90;;;7.10;99.90;;;;;;5112514;28;20815;-72
2022/03/22 05:45:32;;;;;;;1999.90;999.90;;;7.10;99.90;;;;;;5112291;28;20190;-72
2022/03/22 05:48:00;;;;;;;1999.90;999.90;;;7.20;99.90;;;;;;5112423;28;20513;-72
2022/03/22 05:50:27;;;;;;;1999.90;999.90;;;7.30;99.90;;;;;;5112416;28;20166;-72
2022/03/22 05:52:53;;;;;;;1999.90;999.90;;;7.30;99.90;;;;;;5112443;28;20404;-72
2022/03/22 05:55:19;;;;;;;1999.90;999.90;;;7.30;99.90;;;;;;5112290;28;20423;-72
2022/03/22 05:57:44;;;;;;;1999.90;999.90;;;7.40;99.90;;;;;;5112391;28;20404;-72
2022/03/22 06:00:11;;;;;;;1999.90;999.90;;;7.30;99.90;;;;;;5112340;28;20177;-72
2022/03/22 06:02:41;;;;;;;1999.90;999.90;;;7.40;99.90;;;;;;5104993;28;20197;-72
2022/03/22 06:05:09;;;;;;;1999.90;999.90;;;7.40;99.90;;;;;;5112170;28;20428;-72
2022/03/22 06:07:36;;;;;;;1999.90;999.90;;;7.40;99.90;;;;;;5112285;28;20454;-73
2022/03/22 06:10:02;;;;;;;1999.90;999.90;;;7.40;99.90;;;;;;5112303;28;20399;-72
2022/03/22 06:12:41;;;;;;;1999.90;999.90;;;7.50;99.90;;;;;;5112267;28;20422;-72
2022/03/22 06:15:14;;;;;;;1999.90;999.90;;;7.40;99.90;;;;;;5112080;28;21160;-72
2022/03/22 06:17:41;;;;;;;1999.90;999.90;;;7.50;99.90;;;;;;5112067;28;20403;-72
2022/03/22 06:20:07;;;;;;;1999.90;999.90;;;7.60;99.90;;;;;;5112177;28;20396;-72
2022/03/22 06:22:33;;;;;;;1999.90;999.90;;;7.60;99.90;;;;;;5112086;28;20490;-73
2022/03/22 06:24:58;;;;;;;1999.90;999.90;;;7.60;99.90;;;;;;5111730;28;20431;-73
2022/03/22 06:27:24;;;;;;;1999.90;999.90;;;7.70;99.90;;;;;;5129452;28;20171;-72
2022/03/22 06:29:49;;;;;;;1999.90;999.90;;;7.70;99.90;;;;;;5128975;28;20232;-72
2022/03/22 06:32:15;;;;;;;1999.90;999.90;;;7.70;99.90;;;;;;5134001;28;20223;-72
2022/03/22 06:34:41;;;;;;;1999.90;999.90;;;7.80;99.90;;;;;;5126762;28;20263;-71
2022/03/22 06:37:06;;;;;;;1999.90;999.90;;;8.00;99.90;;;;;;5132516;28;20172;-71
2022/03/22 06:39:32;;;;;;;1999.90;999.90;;;7.80;99.90;;;;;;5125424;28;20182;-72
2022/03/22 06:41:57;;;;;;;1999.90;999.90;;;7.80;99.90;;;;;;5132535;28;20169;-72
2022/03/22 06:44:23;;;;;;;1999.90;999.90;;;7.70;99.90;;;;;;5123834;28;20228;-72
2022/03/22 06:46:49;;;;;;;1999.90;999.90;;;7.80;99.90;;;;;;5132015;28;20162;-72
2022/03/22 06:49:14;;;;;;;1999.90;999.90;;;8.00;99.90;;;;;;5132936;28;20205;-72
2022/03/22 06:51:40;;;;;;;1999.90;999.90;;;8.20;99.90;;;;;;5125890;28;20416;-73
2022/03/22 06:54:06;;;;;;;1999.90;999.90;;;8.30;99.90;;;;;;5131460;28;20187;-72
2022/03/22 06:56:31;;;;;;;1999.90;999.90;;;8.60;99.90;;;;;;5110339;28;20280;-72
2022/03/22 06:58:58;;;;;;;1999.90;999.90;;;8.40;99.90;;;;;;5115597;28;20258;-72
2022/03/22 07:01:24;;;;;;;1999.90;999.90;;;8.50;99.90;;;;;;5115447;28;20169;-72
2022/03/22 07:03:49;;;;;;;1999.90;999.90;;;8.60;99.90;;;;;;5115269;28;20435;-72
2022/03/22 07:06:15;;;;;;;1999.90;999.90;;;8.70;99.90;;;;;;5115212;28;20173;-72
2022/03/22 07:08:41;;;;;;;1999.90;999.90;;;8.80;99.90;;;;;;5115291;28;20252;-72
2022/03/22 07:13:52;;;;;;;1999.90;999.90;;;9.10;99.90;;;;;;5115116;28;20193;-72
2022/03/22 07:16:19;;;;;;;1999.90;999.90;;;9.20;99.90;;;;;;5114908;28;20415;-72
2022/03/22 07:18:44;;;;;;;1999.90;999.90;;;9.20;99.90;;;;;;5115068;28;20411;-72
2022/03/22 07:21:10;;;;;;;1999.90;999.90;;;9.30;99.90;;;;;;5115119;28;20413;-72
2022/03/22 07:23:36;;;;;;;1999.90;999.90;;;9.50;99.90;;;;;;5115015;28;20674;-72
2022/03/22 07:26:02;;;;;;;1999.90;999.90;;;9.50;99.90;;;;;;5114754;28;20170;-72
2022/03/22 07:28:28;;;;;;;1999.90;999.90;;;9.60;99.90;;;;;;5114802;28;21052;-72
2022/03/22 07:30:53;;;;;;;1999.90;999.90;;;9.70;99.90;;;;;;5114869;28;20471;-72
2022/03/22 07:33:19;;;;;;;1999.90;999.90;;;9.80;99.90;;;;;;5114793;28;20640;-72
2022/03/22 07:35:44;;;;;;;1999.90;999.90;;;9.80;99.90;;;;;;5114572;28;20658;-72
2022/03/22 07:38:10;;;;;;;1999.90;999.90;;;10.00;99.90;;;;;;5114830;28;20596;-72
2022/03/22 07:40:35;;;;;;;1999.90;999.90;;;10.10;99.90;;;;;;5114740;28;20176;-72
2022/03/22 07:43:01;;;;;;;1999.90;999.90;;;10.10;99.90;;;;;;5114673;28;20197;-72
2022/03/22 07:45:27;;;;;;;1999.90;999.90;;;10.30;99.90;;;;;;5130551;28;20216;-73
2022/03/22 07:47:52;;;;;;;1999.90;999.90;;;10.40;99.90;;;;;;5133504;28;20169;-73
2022/03/22 07:53:08;;;;;;;1999.90;999.90;;;10.60;99.90;;;;;;5134809;28;20153;-72
2022/03/22 07:55:37;;;;;;;1999.90;999.90;;;10.70;99.90;;;;;;5126283;28;20434;-72
2022/03/22 07:58:05;;;;;;;1999.90;999.90;;;10.80;99.90;;;;;;5133792;28;20405;-73
2022/03/22 08:00:34;;;;;;;1999.90;999.90;;;10.90;99.90;;;;;;5126857;28;20410;-73
2022/03/22 08:03:03;;;;;;;1999.90;999.90;;;11.00;99.90;;;;;;5132942;28;20435;-72
2022/03/22 08:05:30;;;;;;;1999.90;999.90;;;11.10;99.90;;;;;;5133006;28;20487;-72
2022/03/22 08:07:56;;;;;;;1999.90;999.90;;;11.20;99.90;;;;;;5133600;28;20451;-72
2022/03/22 08:10:22;;;;;;;1999.90;999.90;;;11.40;99.90;;;;;;5133967;28;20395;-74
2022/03/22 08:12:49;;;;;;;1999.90;999.90;;;11.40;99.90;;;;;;5133919;28;20467;-72
2022/03/22 08:15:15;;;;;;;1999.90;999.90;;;11.50;99.90;;;;;;5132082;28;20437;-73
2022/03/22 08:17:41;;;;;;;1999.90;999.90;;;11.60;99.90;;;;;;5134574;28;20433;-72
2022/03/22 08:20:09;;;;;;;1999.90;999.90;;;11.60;99.90;;;;;;5134862;28;20404;-72
2022/03/22 08:22:50;;;;;;;1999.90;999.90;;;11.90;99.90;;;;;;5126264;28;20415;-73
2022/03/22 08:25:40;;;;;;;1999.90;999.90;;;11.90;99.90;;;;;;5132132;28;20418;-72
2022/03/22 08:28:10;;;;;;;1999.90;999.90;;;12.00;99.90;;;;;;5133728;28;20458;-72
2022/03/22 08:30:39;;;;;;;1999.90;999.90;;;12.10;99.90;;;;;;5129773;28;20411;-72
2022/03/22 08:33:07;;;;;;;1999.90;999.90;;;12.20;99.90;;;;;;5113334;28;20407;-73
2022/03/22 08:35:34;;;;;;;1999.90;999.90;;;12.40;99.90;;;;;;5113371;28;20399;-73
2022/03/22 08:38:00;;;;;;;1999.90;999.90;;;12.50;99.90;;;;;;5113214;28;20761;-73
2022/03/22 08:40:27;;;;;;;1999.90;999.90;;;12.60;99.90;;;;;;5113244;28;20392;-73
2022/03/22 08:42:53;;;;;;;1999.90;999.90;;;12.70;99.90;;;;;;5113173;28;20486;-73
2022/03/22 08:45:24;;;;;;;1999.90;999.90;;;12.80;99.90;;;;;;5112756;28;20451;-72
2022/03/22 08:47:52;;;;;;;1999.90;999.90;;;13.00;99.90;;;;;;5112370;28;20399;-72
2022/03/22 08:50:21;;;;;;;1999.90;999.90;;;13.10;99.90;;;;;;5113036;28;20396;-72
2022/03/22 08:52:48;;;;;;;1999.90;999.90;;;13.20;99.90;;;;;;5112985;28;20433;-72
2022/03/22 08:55:15;;;;;;;1999.90;999.90;;;13.40;99.90;;;;;;5112089;28;20472;-73
2022/03/22 08:57:41;;;;;;;1999.90;999.90;;;13.50;99.90;;;;;;5112747;28;20408;-72
2022/03/22 09:00:10;;;;;;;1999.90;999.90;;;13.60;99.90;;;;;;5112774;28;20424;-73
2022/03/22 09:02:40;;;;;;;1999.90;999.90;;;13.70;99.90;;;;;;5112383;28;20404;-73
2022/03/22 09:07:51;;;;;;;1999.90;999.90;;;13.90;99.90;;;;;;5112655;28;20454;-72
2022/03/22 09:10:20;;;;;;;1999.90;999.90;;;14.10;99.90;;;;;;5112257;28;20396;-72
2022/03/22 09:12:47;;;;;;;1999.90;999.90;;;14.10;99.90;;;;;;5112535;28;20404;-73
2022/03/22 09:15:14;;;;;;;1999.90;999.90;;;14.30;99.90;;;;;;5112245;28;20427;-72
2022/03/22 09:17:41;;;;;;;1999.90;999.90;;;14.40;99.90;;;;;;5111676;28;20440;-73
2022/03/22 09:20:07;;;;;;;1999.90;999.90;;;14.50;99.90;;;;;;5112429;28;20486;-73
2022/03/22 09:22:33;;;;;;;1999.90;999.90;;;14.70;99.90;;;;;;5112843;28;20968;-73
2022/03/22 09:24:58;;;;;;;1999.90;999.90;;;14.80;99.90;;;;;;5111449;28;20495;-73
2022/03/22 09:27:24;;;;;;;1999.90;999.90;;;14.90;99.90;;;;;;5112252;28;20647;-73
2022/03/22 09:29:50;;;;;;;1999.90;999.90;;;14.90;99.90;;;;;;5112277;28;20255;-73
2022/03/22 09:32:16;;;;;;;1999.90;999.90;;;15.00;99.80;;;;;;5111758;28;20828;-73
2022/03/22 09:34:41;;;;;;;1999.90;999.90;;;15.10;99.90;;;;;;5112024;28;20190;-72
2022/03/22 09:37:07;;;;;;;1999.90;999.90;;;15.30;99.90;;;;;;5112213;28;20185;-73
2022/03/22 09:39:33;;;;;;;1999.90;999.90;;;15.40;99.90;;;;;;5111820;28;20166;-73
2022/03/22 09:42:02;;;;;;;1999.90;999.90;;;15.50;99.90;;;;;;5112181;28;20168;-73
2022/03/22 09:44:29;;;;;;;1999.90;999.90;;;15.60;98.70;;;;;;5111743;28;20437;-73
2022/03/22 09:46:56;;;;;;;1999.90;999.90;;;15.80;98.90;;;;;;5111671;28;20442;-73
2022/03/22 09:49:23;;;;;;;1999.90;999.90;;;15.80;97.40;;;;;;5111772;28;20487;-73
2022/03/22 09:51:48;;;;;;;1999.90;999.90;;;15.90;98.50;;;;;;5112065;28;20405;-73
2022/03/22 09:54:18;;;;;;;1999.90;999.90;;;16.00;98.10;;;;;;5111309;28;20428;-73
2022/03/22 09:56:46;;;;;;;1999.90;999.90;;;16.10;95.30;;;;;;5112297;28;20154;-73
2022/03/22 09:59:14;;;;;;;1999.90;999.90;;;16.10;95.70;;;;;;5111918;28;20581;-73
2022/03/22 10:01:40;;;;;;;1999.90;999.90;;;16.20;93.50;;;;;;5111564;28;20410;-73
2022/03/22 10:04:09;;;;;;;1999.90;999.90;;;16.30;93.80;;;;;;5111741;28;20509;-73
2022/03/22 10:06:35;;;;;;;1999.90;999.90;;;16.40;92.40;;;;;;5112040;28;20496;-73
2022/03/22 10:09:05;;;;;;;1999.90;999.90;;;16.60;91.00;;;;;;5111173;28;20450;-73
2022/03/22 10:11:43;;;;;;;1999.90;999.90;;;16.70;90.00;;;;;;5095101;28;20474;-72
2022/03/22 10:14:11;;;;;;;1999.90;999.90;;;16.90;85.50;;;;;;5091121;28;20416;-72
2022/03/22 10:16:51;;;;;;;1999.90;999.90;;;17.00;82.70;;;;;;5091110;28;20408;-72
2022/03/22 10:19:21;;;;;;;1999.90;999.90;;;17.10;83.60;;;;;;5091191;28;20443;-71
2022/03/22 10:21:47;;;;;;;1999.90;999.90;;;17.30;84.50;;;;;;5091527;28;20401;-71
2022/03/22 10:24:17;;;;;;;1999.90;999.90;;;17.40;83.60;;;;;;5090401;28;20789;-72
2022/03/22 10:26:47;;;;;;;1999.90;999.90;;;17.50;76.50;;;;;;5091182;28;20513;-72
2022/03/22 10:29:14;;;;;;;1999.90;999.90;;;17.60;73.50;;;;;;5091640;28;20490;-73
2022/03/22 10:31:40;;;;;;;1999.90;999.90;;;17.70;73.90;;;;;;5095029;28;20399;-73
2022/03/22 10:34:11;;;;;;;1999.90;999.90;;;17.80;66.70;;;;;;5095042;28;20516;-73
2022/03/22 10:36:38;;;;;;;1999.90;999.90;;;17.90;63.50;;;;;;5095323;28;20400;-72
2022/03/22 10:39:09;;;;;;;1999.90;999.90;;;18.00;61.10;;;;;;5095043;28;20762;-72
2022/03/22 10:41:45;;;;;;;1999.90;999.90;;;18.20;59.10;;;;;;5094821;28;20411;-73
2022/03/22 10:44:13;;;;;;;1999.90;999.90;;;18.30;56.60;;;;;;5094349;28;20453;-72
2022/03/22 10:46:40;;;;;;;1999.90;999.90;;;18.40;52.60;;;;;;5094530;28;20405;-72
2022/03/22 10:49:09;;;;;;;1999.90;999.90;;;18.40;49.30;;;;;;5094847;28;20451;-73
2022/03/22 10:51:46;;;;;;;1999.90;999.90;;;18.50;50.30;;;;;;5094775;28;20411;-73
2022/03/22 10:54:18;;;;;;;1999.90;999.90;;;18.60;47.90;;;;;;5094274;28;20420;-73
2022/03/22 10:56:48;;;;;;;1999.90;999.90;;;18.60;38.60;;;;;;5094843;28;20404;-74
2022/03/22 10:59:16;;;;;;;1999.90;999.90;;;18.70;43.40;;;;;;5094760;28;20454;-73
2022/03/22 11:01:43;;;;;;;1999.90;999.90;;;18.70;38.50;;;;;;5094582;28;20905;-73
2022/03/22 11:04:09;;;;;;;1999.90;999.90;;;18.80;42.20;;;;;;5094357;28;20424;-73
2022/03/22 11:06:37;;;;;;;1999.90;999.90;;;18.90;41.10;;;;;;5094765;28;20419;-73
2022/03/22 11:09:03;;;;;;;1999.90;999.90;;;18.90;35.90;;;;;;5094085;28;20534;-73
2022/03/22 11:11:32;;;;;;;1999.90;999.90;;;18.90;41.80;;;;;;5094363;28;20432;-72
2022/03/22 11:13:59;;;;;;;1999.90;999.90;;;18.90;39.40;;;;;;5094303;28;20801;-74
2022/03/22 11:16:27;;;;;;;1999.90;999.90;;;19.00;41.40;;;;;;5093991;28;20487;-72
2022/03/22 11:18:59;;;;;;;1999.90;999.90;;;19.20;37.60;;;;;;5094622;28;20803;-72
2022/03/22 11:21:26;;;;;;;1999.90;999.90;;;19.40;39.00;;;;;;5094368;28;20404;-72
2022/03/22 11:24:07;;;;;;;1999.90;999.90;;;19.60;34.80;;;;;;5093785;28;20412;-73
2022/03/22 11:26:42;;;;;;;1999.90;999.90;;;19.60;35.80;;;;;;5094275;28;20433;-74
2022/03/22 11:29:10;;;;;;;1999.90;999.90;;;19.80;34.40;;;;;;5093630;28;20526;-73
2022/03/22 11:31:37;;;;;;;1999.90;999.90;;;19.70;33.50;;;;;;5094221;28;20442;-73
2022/03/22 11:34:11;;;;;;;1999.90;999.90;;;19.70;33.00;;;;;;5093796;28;20517;-73
2022/03/22 11:36:45;;;;;;;1999.90;999.90;;;19.80;30.80;;;;;;5093685;28;20750;-73
2022/03/22 11:39:19;;;;;;;1999.90;999.90;;;20.00;33.10;;;;;;5093984;28;20405;-73
2022/03/22 11:44:36;;;;;;;1999.90;999.90;;;20.00;28.50;;;;;;5093402;28;20541;-73
2022/03/22 11:47:08;;;;;;;1999.90;999.90;;;19.90;26.30;;;;;;5093738;28;20410;-73
2022/03/22 11:49:59;;;;;;;1999.90;999.90;;;20.10;28.80;;;;;;5093748;28;20817;-73
2022/03/22 11:52:25;;;;;;;1999.90;999.90;;;20.90;29.90;;;;;;5093326;28;20490;-73
2022/03/22 11:54:55;;;;;;;1999.90;999.90;;;21.40;24.70;;;;;;5093397;28;20968;-73
2022/03/22 11:57:21;;;;;;;1999.90;999.90;;;22.20;26.70;;;;;;5093241;28;20821;-73
2022/03/22 11:59:52;;;;;;;1999.90;999.90;;;23.00;23.50;;;;;;5093334;28;20400;-74
2022/03/22 12:02:26;;;;;;;1999.90;999.90;;;23.60;24.40;;;;;;5093559;28;20416;-74
2022/03/22 12:04:54;;;;;;;1999.90;999.90;;;24.30;20.30;;;;;;5093212;28;20798;-73
2022/03/22 12:07:28;;;;;;;1999.90;999.90;;;24.50;19.80;;;;;;5092812;28;20379;-74
2022/03/22 12:10:02;;;;;;;1999.90;999.90;;;24.50;18.40;;;;;;5093141;28;20433;-74
2022/03/22 12:12:30;;;;;;;1999.90;999.90;;;24.90;19.10;;;;;;5093303;28;20374;-73
2022/03/22 12:14:57;;;;;;;1999.90;999.90;;;25.60;18.40;;;;;;5092627;28;20406;-73
2022/03/22 12:17:23;;;;;;;1999.90;999.90;;;26.30;16.80;;;;;;5093085;28;20461;-74
2022/03/22 12:19:48;;;;;;;1999.90;999.90;;;27.00;16.30;;;;;;5093166;28;20419;-74
2022/03/22 12:22:14;;;;;;;1999.90;999.90;;;27.30;15.00;;;;;;5092505;28;20166;-74
2022/03/22 12:24:40;;;;;;;1999.90;999.90;;;27.40;12.50;;;;;;5085978;28;20201;-73
2022/03/22 12:27:09;;;;;;;1999.90;999.90;;;27.70;13.50;;;;;;5092925;28;20174;-73
2022/03/22 12:29:40;;;;;;;1999.90;999.90;;;28.10;12.10;;;;;;5092270;28;20186;-74
2022/03/22 12:32:15;;;;;;;1999.90;999.90;;;28.50;11.50;;;;;;5092873;28;20401;-74
2022/03/22 12:34:43;;;;;;;1999.90;999.90;;;28.50;10.90;;;;;;5092538;28;20436;-73